Time;durP1;ratioP1;P1;durP2;ratioP2;P2;SDS_P1;SDS_P2;PMS_P1;PMS_P2;Temp;Humidity;BMP_temperature;BMP_pressure;BME280_temperature;BME280_humidity;BME280_pressure;Samples;Min_cycle;Max_cycle;Signal;HPM_P1;HPM_P2
2021/10/15 00:00:57;;;;;;;8.70;4.90;;;10.00;60.10;;;;;;5041940;28;20112;-67
2021/10/15 00:03:23;;;;;;;9.05;4.70;;;10.00;60.40;;;;;;5049458;28;20035;-66
2021/10/15 00:05:49;;;;;;;9.93;4.80;;;10.00;60.40;;;;;;5038799;28;20041;-67
2021/10/15 00:08:15;;;;;;;6.93;4.50;;;9.90;60.20;;;;;;5034286;28;20025;-67
2021/10/15 00:10:40;;;;;;;7.40;4.20;;;9.90;60.30;;;;;;5045020;28;20037;-67
2021/10/15 00:13:06;;;;;;;6.60;4.28;;;9.90;60.30;;;;;;5041662;28;20104;-67
2021/10/15 00:15:32;;;;;;;6.82;4.57;;;9.90;60.20;;;;;;5045864;28;20092;-67
2021/10/15 00:17:58;;;;;;;9.25;4.50;;;9.90;60.20;;;;;;5049368;28;20037;-66
2021/10/15 00:20:24;;;;;;;7.20;4.57;;;9.80;60.10;;;;;;5049776;28;20040;-67
2021/10/15 00:22:49;;;;;;;9.55;4.45;;;9.80;60.20;;;;;;5051111;28;20041;-66
2021/10/15 00:25:15;;;;;;;10.18;4.68;;;9.70;60.40;;;;;;5042391;28;20045;-67
2021/10/15 00:27:41;;;;;;;7.43;4.45;;;9.70;60.40;;;;;;5044112;28;20051;-67
2021/10/15 00:30:07;;;;;;;7.10;4.28;;;9.70;60.50;;;;;;5039693;28;20040;-67
2021/10/15 00:32:32;;;;;;;6.90;4.35;;;9.70;60.60;;;;;;5035244;28;20112;-67
2021/10/15 00:34:58;;;;;;;6.38;4.43;;;9.60;60.50;;;;;;5049942;28;20040;-67
2021/10/15 00:37:24;;;;;;;6.28;4.22;;;9.60;60.50;;;;;;5044238;28;20025;-67
2021/10/15 00:39:50;;;;;;;6.75;4.20;;;9.60;60.50;;;;;;5044085;28;20110;-67
2021/10/15 00:42:15;;;;;;;8.02;4.20;;;9.50;60.50;;;;;;5039306;28;20067;-67
2021/10/15 00:44:41;;;;;;;6.28;4.05;;;9.50;60.50;;;;;;5041926;28;20017;-67
2021/10/15 00:47:07;;;;;;;9.55;4.63;;;9.50;60.50;;;;;;5045296;28;20037;-67
2021/10/15 00:49:33;;;;;;;7.10;4.60;;;9.50;60.70;;;;;;5038887;28;20032;-67
2021/10/15 00:52:00;;;;;;;10.93;5.13;;;9.50;60.90;;;;;;5047202;28;20094;-67
2021/10/15 00:54:26;;;;;;;10.25;4.68;;;9.50;61.00;;;;;;5047419;28;20029;-67
2021/10/15 00:56:53;;;;;;;7.70;4.50;;;9.40;61.20;;;;;;5040397;28;20024;-67
2021/10/15 00:59:19;;;;;;;7.45;4.32;;;9.40;61.20;;;;;;5033630;28;20022;-67
2021/10/15 01:01:45;;;;;;;8.73;4.93;;;9.40;61.60;;;;;;5048549;28;20032;-67
2021/10/15 01:04:12;;;;;;;7.80;4.60;;;9.40;61.90;;;;;;5048492;28;20025;-67
2021/10/15 01:06:38;;;;;;;8.32;4.95;;;9.40;62.10;;;;;;5044005;28;20115;-66
2021/10/15 01:09:05;;;;;;;7.40;4.35;;;9.40;62.60;;;;;;5037824;28;20365;-67
2021/10/15 01:11:31;;;;;;;6.70;4.15;;;9.40;62.80;;;;;;5034123;28;20029;-67
2021/10/15 01:13:58;;;;;;;7.03;4.15;;;9.40;62.70;;;;;;5046508;28;20024;-66
2021/10/15 01:16:26;;;;;;;7.55;4.22;;;9.30;62.40;;;;;;5047192;28;20519;-67
2021/10/15 01:18:56;;;;;;;10.15;4.57;;;9.30;62.20;;;;;;5042929;28;20029;-67
2021/10/15 01:21:21;;;;;;;7.00;4.20;;;9.30;62.00;;;;;;5039428;28;20051;-66
2021/10/15 01:23:47;;;;;;;10.52;4.28;;;9.30;61.90;;;;;;5048740;28;20509;-67
2021/10/15 01:26:13;;;;;;;9.88;4.32;;;9.20;61.90;;;;;;5048032;28;20037;-67
2021/10/15 01:28:38;;;;;;;6.10;3.83;;;9.20;62.10;;;;;;5039806;28;20034;-67
2021/10/15 01:31:05;;;;;;;7.25;4.32;;;9.20;62.10;;;;;;5043257;28;20060;-66
2021/10/15 01:33:31;;;;;;;6.50;3.88;;;9.10;62.90;;;;;;5045635;28;20033;-67
2021/10/15 01:35:56;;;;;;;8.20;4.30;;;9.10;62.10;;;;;;5042963;28;20388;-67
2021/10/15 01:38:22;;;;;;;7.10;4.03;;;9.10;62.50;;;;;;5037787;28;30899;-66
2021/10/15 01:40:48;;;;;;;7.35;4.13;;;9.10;63.00;;;;;;5043164;28;20037;-66
2021/10/15 01:43:21;;;;;;;5.90;3.97;;;9.10;62.90;;;;;;5040731;28;20029;-66
2021/10/15 01:45:47;;;;;;;6.72;3.78;;;9.10;63.10;;;;;;5045236;28;20041;-67
2021/10/15 01:48:13;;;;;;;6.10;3.75;;;9.10;62.90;;;;;;5049038;28;20052;-67
2021/10/15 01:50:39;;;;;;;9.13;3.80;;;9.10;62.80;;;;;;5036528;28;20024;-67
2021/10/15 01:53:04;;;;;;;7.88;3.70;;;9.10;62.40;;;;;;5034433;28;20061;-67
2021/10/15 01:55:30;;;;;;;5.60;3.58;;;9.00;62.30;;;;;;5044238;28;20507;-67
2021/10/15 01:57:56;;;;;;;5.95;3.35;;;9.00;62.40;;;;;;5041485;28;20056;-67
2021/10/15 02:00:21;;;;;;;6.03;3.30;;;9.00;62.50;;;;;;5047891;28;20029;-67
2021/10/15 02:02:47;;;;;;;5.68;3.13;;;9.00;62.50;;;;;;5045097;28;20032;-66
2021/10/15 02:05:15;;;;;;;9.02;3.10;;;9.00;62.60;;;;;;5045112;28;20045;-67
2021/10/15 02:07:42;;;;;;;6.82;3.20;;;9.00;62.60;;;;;;5038981;28;20411;-67
2021/10/15 02:10:10;;;;;;;5.47;3.10;;;9.00;62.50;;;;;;5043007;28;20032;-67
2021/10/15 02:12:37;;;;;;;5.40;3.40;;;8.90;62.30;;;;;;5043498;28;20044;-67
2021/10/15 02:15:05;;;;;;;5.38;3.10;;;8.90;62.40;;;;;;5047912;28;20028;-66
2021/10/15 02:17:31;;;;;;;5.35;3.20;;;8.80;62.20;;;;;;5033729;28;20442;-67
2021/10/15 02:19:56;;;;;;;4.70;3.00;;;8.80;62.20;;;;;;5048517;28;20526;-67
2021/10/15 02:22:22;;;;;;;4.60;2.72;;;8.70;62.10;;;;;;5043045;28;20025;-67
2021/10/15 02:24:48;;;;;;;6.15;2.90;;;8.70;62.20;;;;;;5036975;28;20492;-67
2021/10/15 02:27:14;;;;;;;5.55;2.92;;;8.70;62.30;;;;;;5036835;28;20096;-67
2021/10/15 02:29:39;;;;;;;5.68;2.85;;;8.60;62.40;;;;;;5036188;28;20105;-67
2021/10/15 02:32:06;;;;;;;5.15;2.90;;;8.60;62.40;;;;;;5045284;28;20135;-67
2021/10/15 02:34:31;;;;;;;4.78;2.70;;;8.60;62.50;;;;;;5047431;28;20037;-67
2021/10/15 02:36:57;;;;;;;4.80;2.90;;;8.60;62.50;;;;;;5042608;28;20030;-67
2021/10/15 02:39:23;;;;;;;4.75;3.08;;;8.60;62.60;;;;;;5047035;28;20033;-66
2021/10/15 02:41:48;;;;;;;4.55;2.75;;;8.50;62.50;;;;;;5042258;28;20028;-66
2021/10/15 02:44:14;;;;;;;5.30;2.72;;;8.50;62.60;;;;;;5046111;28;20033;-66
2021/10/15 02:46:42;;;;;;;5.88;2.92;;;8.50;62.70;;;;;;5045652;28;20480;-67
2021/10/15 02:49:08;;;;;;;5.95;3.08;;;8.50;62.90;;;;;;5038432;28;20020;-66
2021/10/15 02:51:34;;;;;;;7.20;2.88;;;8.50;63.00;;;;;;5034536;28;20578;-66
2021/10/15 02:54:01;;;;;;;5.38;2.80;;;8.50;63.10;;;;;;5035781;28;20104;-66
2021/10/15 02:56:27;;;;;;;4.80;2.88;;;8.50;63.10;;;;;;5031950;28;20017;-67
2021/10/15 02:58:53;;;;;;;4.90;2.80;;;8.50;63.10;;;;;;5048840;28;20031;-66
2021/10/15 03:01:19;;;;;;;5.95;2.90;;;8.50;63.10;;;;;;5044452;28;20099;-66
2021/10/15 03:03:44;;;;;;;5.82;3.20;;;8.50;63.10;;;;;;5040397;28;20033;-66
2021/10/15 03:06:11;;;;;;;5.63;3.00;;;8.50;63.20;;;;;;5042534;28;20392;-67
2021/10/15 03:08:37;;;;;;;4.78;2.90;;;8.50;63.30;;;;;;5041413;28;20044;-66
2021/10/15 03:11:03;;;;;;;4.60;3.05;;;8.50;63.30;;;;;;5032078;28;20651;-67
2021/10/15 03:13:29;;;;;;;6.45;3.00;;;8.50;63.40;;;;;;5042567;28;20056;-66
2021/10/15 03:15:54;;;;;;;5.15;3.00;;;8.50;63.50;;;;;;5039713;28;20120;-67
2021/10/15 03:18:21;;;;;;;6.45;2.90;;;8.50;63.60;;;;;;5046476;28;20029;-66
2021/10/15 03:20:46;;;;;;;5.50;3.13;;;8.50;63.70;;;;;;5051071;28;20025;-66
2021/10/15 03:23:12;;;;;;;5.45;3.20;;;8.50;63.70;;;;;;5050251;28;20083;-67
2021/10/15 03:25:38;;;;;;;5.78;3.35;;;8.50;63.80;;;;;;5039604;28;20083;-67
2021/10/15 03:28:05;;;;;;;5.82;3.45;;;8.60;64.10;;;;;;5043974;28;20052;-67
2021/10/15 03:30:30;;;;;;;5.90;3.60;;;8.60;64.40;;;;;;5047907;28;20060;-67
2021/10/15 03:32:56;;;;;;;5.55;3.20;;;8.60;64.60;;;;;;5041290;28;20025;-66
2021/10/15 03:35:22;;;;;;;7.35;3.60;;;8.70;65.00;;;;;;5046018;28;20025;-66
2021/10/15 03:37:48;;;;;;;5.15;3.45;;;8.70;65.20;;;;;;5046579;28;20021;-67
2021/10/15 03:40:15;;;;;;;5.65;3.40;;;8.70;65.50;;;;;;5045754;28;20070;-66
2021/10/15 03:42:41;;;;;;;7.10;4.18;;;8.70;65.60;;;;;;5045414;28;20322;-66
2021/10/15 03:45:08;;;;;;;6.10;3.60;;;8.70;65.80;;;;;;5049797;28;20029;-66
2021/10/15 03:47:35;;;;;;;5.55;3.63;;;8.70;65.90;;;;;;5048232;28;20111;-66
2021/10/15 03:50:03;;;;;;;6.88;3.40;;;8.70;66.00;;;;;;5036564;28;20022;-67
2021/10/15 03:52:28;;;;;;;5.22;3.20;;;8.70;66.10;;;;;;5049879;28;20385;-66
2021/10/15 03:54:54;;;;;;;5.35;3.53;;;8.70;66.30;;;;;;5050799;28;20033;-66
2021/10/15 03:57:20;;;;;;;4.60;3.17;;;8.80;66.30;;;;;;5040390;28;20103;-67
2021/10/15 03:59:46;;;;;;;5.03;3.15;;;8.70;67.00;;;;;;5048431;28;20311;-67
2021/10/15 04:02:11;;;;;;;6.07;3.40;;;8.70;65.70;;;;;;5049853;28;20044;-66
2021/10/15 04:04:37;;;;;;;5.22;3.35;;;8.70;65.60;;;;;;5041245;28;20622;-66
2021/10/15 04:07:03;;;;;;;7.47;3.40;;;8.70;65.60;;;;;;5047630;28;20036;-66
2021/10/15 04:09:29;;;;;;;7.20;3.42;;;8.70;65.90;;;;;;5044100;28;20056;-67
2021/10/15 04:11:56;;;;;;;5.85;3.38;;;8.70;66.10;;;;;;5048734;28;20048;-66
2021/10/15 04:14:22;;;;;;;6.85;3.60;;;8.70;66.20;;;;;;5047626;28;20036;-66
2021/10/15 04:16:48;;;;;;;5.97;3.47;;;8.70;66.00;;;;;;5037990;28;20041;-66
2021/10/15 04:19:13;;;;;;;6.32;3.78;;;8.70;66.00;;;;;;5037631;28;20492;-66
2021/10/15 04:21:39;;;;;;;8.25;3.50;;;8.70;66.00;;;;;;5043520;28;20052;-66
2021/10/15 04:24:05;;;;;;;6.60;3.88;;;8.60;66.00;;;;;;5049738;28;20078;-66
2021/10/15 04:26:31;;;;;;;7.75;3.60;;;8.60;66.10;;;;;;5037434;28;20104;-66
2021/10/15 04:28:57;;;;;;;11.25;3.60;;;8.60;66.10;;;;;;5046188;28;20033;-67
2021/10/15 04:31:22;;;;;;;7.35;3.92;;;8.70;66.10;;;;;;5038715;28;20100;-66
2021/10/15 04:33:48;;;;;;;5.70;3.50;;;8.60;66.10;;;;;;5042536;28;20025;-67
2021/10/15 04:36:14;;;;;;;11.55;3.80;;;8.60;66.20;;;;;;5048653;28;20112;-67
2021/10/15 04:38:40;;;;;;;57.97;5.75;;;8.60;66.30;;;;;;5047925;28;20025;-67
2021/10/15 04:41:05;;;;;;;31.55;4.93;;;8.60;66.30;;;;;;5049505;28;20025;-67
2021/10/15 04:43:31;;;;;;;11.98;4.40;;;8.60;66.30;;;;;;5049341;28;20021;-67
2021/10/15 04:45:57;;;;;;;8.35;4.10;;;8.50;66.50;;;;;;5046724;28;20036;-67
2021/10/15 04:48:23;;;;;;;6.22;3.85;;;8.50;66.70;;;;;;5046927;28;20025;-67
2021/10/15 04:50:48;;;;;;;6.10;3.90;;;8.50;67.10;;;;;;5036688;28;20143;-66
2021/10/15 04:53:14;;;;;;;8.90;4.22;;;8.50;67.40;;;;;;5049603;28;20052;-67
2021/10/15 04:55:40;;;;;;;7.20;4.07;;;8.50;67.50;;;;;;5048862;28;20029;-65
2021/10/15 14:54:56;;;;;;;5.43;2.50;;;36.30;19.30;;;;;;5058085;28;20490;-70
2021/10/15 14:57:22;;;;;;;6.97;2.33;;;35.70;20.40;;;;;;5042691;28;20033;-70
2021/10/15 14:59:48;;;;;;;11.60;3.08;;;35.20;20.90;;;;;;5044674;28;20104;-70
2021/10/15 15:02:23;;;;;;;6.82;2.63;;;34.80;21.20;;;;;;5047796;28;20060;-70
2021/10/15 15:04:49;;;;;;;8.73;2.75;;;34.10;22.10;;;;;;5044623;28;20032;-69
2021/10/15 15:07:15;;;;;;;6.47;2.55;;;33.70;22.30;;;;;;5045087;28;20017;-69
2021/10/15 15:09:43;;;;;;;6.85;2.80;;;32.50;23.30;;;;;;5044274;28;20492;-70
2021/10/15 15:12:10;;;;;;;6.43;2.67;;;32.10;24.20;;;;;;5053333;28;20027;-69
2021/10/15 15:14:35;;;;;;;9.13;2.90;;;31.60;24.70;;;;;;5041580;28;20041;-71
2021/10/15 15:17:01;;;;;;;5.57;2.72;;;30.70;25.40;;;;;;5047641;28;20025;-70
2021/10/15 15:19:27;;;;;;;8.50;3.10;;;30.30;26.40;;;;;;5034339;28;20113;-70
2021/10/15 15:21:55;;;;;;;9.73;3.33;;;29.30;27.20;;;;;;5040290;28;20049;-70
2021/10/15 15:24:26;;;;;;;8.45;3.38;;;28.70;27.90;;;;;;5034628;28;20484;-70
2021/10/15 15:26:52;;;;;;;8.77;3.40;;;28.10;28.80;;;;;;5043612;28;20030;-70
2021/10/15 15:29:17;;;;;;;8.00;3.05;;;27.60;29.30;;;;;;5039817;28;20040;-69
2021/10/15 15:31:45;;;;;;;7.85;2.88;;;27.30;29.80;;;;;;5044546;28;20022;-69
2021/10/15 15:34:10;;;;;;;9.95;2.75;;;27.00;30.60;;;;;;5041177;28;20059;-68
2021/10/15 15:36:37;;;;;;;7.20;3.00;;;26.70;31.70;;;;;;5042202;28;20396;-69
2021/10/15 15:39:03;;;;;;;10.02;3.25;;;26.30;32.10;;;;;;5025168;28;20441;-68
2021/10/15 15:41:30;;;;;;;7.22;3.03;;;25.90;32.80;;;;;;5043878;28;20033;-68
2021/10/15 15:44:00;;;;;;;10.73;3.20;;;25.60;33.50;;;;;;5046934;28;20033;-68
2021/10/15 15:46:25;;;;;;;6.32;2.90;;;25.20;34.10;;;;;;5042520;28;20075;-68
2021/10/15 15:48:52;;;;;;;8.15;3.00;;;24.90;34.80;;;;;;5046697;28;20032;-68
2021/10/15 15:51:18;;;;;;;9.15;3.17;;;24.60;35.40;;;;;;5052683;28;20017;-68
2021/10/15 15:53:43;;;;;;;6.13;2.78;;;24.40;35.90;;;;;;5044629;28;20400;-68
2021/10/15 15:56:10;;;;;;;6.55;3.00;;;24.20;36.30;;;;;;5047744;28;20021;-68
2021/10/15 15:58:36;;;;;;;6.32;2.95;;;24.00;36.80;;;;;;5044683;28;20037;-68
2021/10/15 16:01:03;;;;;;;7.13;2.80;;;23.80;38.30;;;;;;5042931;28;20033;-68
2021/10/15 16:03:29;;;;;;;17.83;3.28;;;23.60;37.70;;;;;;5042253;28;20416;-67
2021/10/15 16:05:55;;;;;;;10.68;2.97;;;23.40;38.10;;;;;;5031427;28;20026;-68
2021/10/15 16:08:21;;;;;;;6.75;2.80;;;23.20;38.60;;;;;;5029989;28;20033;-65
2021/10/15 16:10:47;;;;;;;10.02;3.20;;;23.00;39.10;;;;;;5032337;28;20049;-65
2021/10/15 16:13:13;;;;;;;7.68;3.08;;;22.90;39.40;;;;;;5029888;28;20099;-65
2021/10/15 16:15:43;;;;;;;12.98;3.00;;;22.80;40.00;;;;;;5031881;28;20033;-66
2021/10/15 16:18:09;;;;;;;6.38;2.70;;;22.70;40.70;;;;;;5031080;28;20098;-65
2021/10/15 16:20:35;;;;;;;7.38;2.88;;;22.70;41.00;;;;;;5023568;28;20061;-65
2021/10/15 16:23:02;;;;;;;6.28;2.88;;;22.60;41.50;;;;;;5032925;28;20475;-65
2021/10/15 16:25:27;;;;;;;12.73;3.10;;;22.50;41.80;;;;;;5031648;28;20026;-65
2021/10/15 16:27:55;;;;;;;11.25;2.67;;;22.50;42.10;;;;;;5031861;28;20037;-65
2021/10/15 16:30:21;;;;;;;4.65;2.70;;;22.40;42.10;;;;;;5031613;28;20022;-65
2021/10/15 16:32:47;;;;;;;5.88;2.45;;;22.40;42.60;;;;;;5031915;28;20025;-65
2021/10/15 16:35:13;;;;;;;7.30;2.53;;;22.30;43.10;;;;;;5032273;28;20033;-65
2021/10/15 16:37:39;;;;;;;6.55;2.60;;;22.20;43.50;;;;;;5032602;28;20044;-65
2021/10/15 16:40:08;;;;;;;7.50;2.58;;;22.20;43.80;;;;;;5031262;28;20029;-65
2021/10/15 16:42:34;;;;;;;4.97;2.47;;;22.10;44.10;;;;;;5030945;28;20021;-65
2021/10/15 16:45:00;;;;;;;7.38;2.63;;;22.10;44.20;;;;;;5031148;28;20033;-65
2021/10/15 16:47:26;;;;;;;8.02;2.58;;;22.00;44.20;;;;;;5030963;28;20047;-66
2021/10/15 16:49:53;;;;;;;7.07;2.60;;;22.00;44.30;;;;;;5032427;28;20033;-65
2021/10/15 16:52:19;;;;;;;6.32;2.40;;;21.90;44.50;;;;;;5031190;28;20040;-65
2021/10/15 16:54:47;;;;;;;7.30;2.42;;;21.90;44.70;;;;;;5030589;28;20054;-65
2021/10/15 16:57:15;;;;;;;8.43;2.20;;;21.80;45.00;;;;;;5027972;28;20404;-65
2021/10/15 16:59:40;;;;;;;6.00;2.20;;;21.80;45.60;;;;;;5029782;28;20036;-65
2021/10/15 17:02:06;;;;;;;6.85;2.50;;;21.80;45.80;;;;;;5032190;28;20021;-68
2021/10/15 17:04:32;;;;;;;7.00;2.35;;;21.60;45.80;;;;;;5029901;28;20108;-69
2021/10/15 17:06:58;;;;;;;8.75;2.47;;;21.50;46.20;;;;;;5031026;28;20357;-69
2021/10/15 17:09:24;;;;;;;6.45;2.20;;;21.50;46.70;;;;;;5030712;28;20036;-68
2021/10/15 17:11:50;;;;;;;7.60;2.10;;;21.40;47.10;;;;;;5030895;28;20159;-69
2021/10/15 17:14:16;;;;;;;5.75;2.17;;;21.20;47.20;;;;;;5030569;28;20033;-69
2021/10/15 17:16:43;;;;;;;7.20;2.38;;;21.10;47.50;;;;;;5030390;28;20436;-68
2021/10/15 17:19:09;;;;;;;6.53;2.58;;;21.00;47.70;;;;;;5031089;28;20036;-69
2021/10/15 17:21:37;;;;;;;5.88;2.60;;;20.90;47.90;;;;;;5030026;28;20022;-68
2021/10/15 17:24:06;;;;;;;7.63;2.92;;;20.80;48.20;;;;;;5027555;28;20032;-68
2021/10/15 17:26:33;;;;;;;6.22;2.55;;;20.70;48.50;;;;;;5030144;28;20045;-69
2021/10/15 17:28:59;;;;;;;5.30;2.50;;;20.50;48.80;;;;;;5030514;28;20040;-68
2021/10/15 17:31:25;;;;;;;6.80;2.80;;;20.40;48.80;;;;;;5029082;28;20029;-68
2021/10/15 17:33:51;;;;;;;10.60;2.90;;;20.30;48.90;;;;;;5030202;28;20467;-68
2021/10/15 17:36:17;;;;;;;20.75;3.17;;;20.10;49.10;;;;;;5027999;28;20037;-68
2021/10/15 17:38:44;;;;;;;25.98;3.33;;;19.90;49.30;;;;;;5027452;28;20049;-68
2021/10/15 17:41:10;;;;;;;16.73;3.00;;;19.80;49.60;;;;;;5031012;28;20027;-69
2021/10/15 17:43:36;;;;;;;12.23;3.15;;;19.60;49.90;;;;;;5028695;28;20025;-68
